Time;durP1;ratioP1;P1;durP2;ratioP2;P2;SDS_P1;SDS_P2;PMS_P1;PMS_P2;Temp;Humidity;BMP_temperature;BMP_pressure;BME280_temperature;BME280_humidity;BME280_pressure;Samples;Min_cycle;Max_cycle;Signal;HPM_P1;HPM_P2
2022/09/20 00:01:57;;;;;;;;;;;;;;;;;;6271291;22;20186;-82
2022/09/20 00:04:23;;;;;;;;;;;;;;;;;;6271857;22;19927;-83
2022/09/20 00:06:48;;;;;;;;;;;;;;;;;;6272165;22;19933;-80
2022/09/20 00:09:14;;;;;;;;;;;;;;;;;;6246806;22;19923;-84
2022/09/20 00:11:39;;;;;;;;;;;;;;;;;;6265962;23;19918;-82
2022/09/20 00:14:07;;;;;;;;;;;;;;;;;;6265046;23;19964;-82
2022/09/20 00:16:32;;;;;;;;;;;;;;;;;;6260233;23;19918;-83
2022/09/20 00:18:58;;;;;;;;;;;;;;;;;;6260629;23;20047;-82
2022/09/20 00:21:23;;;;;;;;;;;;;;;;;;6226392;23;19911;-82
2022/09/20 00:23:49;;;;;;;;;;;;;;;;;;6249645;23;20336;-80
2022/09/20 00:26:16;;;;;;;;;;;;;;;;;;6247363;23;19915;-81
2022/09/20 00:28:42;;;;;;;;;;;;;;;;;;6249915;23;19958;-82
2022/09/20 00:31:08;;;;;;;;;;;;;;;;;;6250837;23;19918;-82
2022/09/20 00:36:18;;;;;;;;;;;;;;;;;;6249385;23;19935;-82
2022/09/20 00:38:43;;;;;;;;;;;;;;;;;;6253405;23;19911;-83
2022/09/20 00:41:09;;;;;;;;;;;;;;;;;;6257883;23;19916;-82
2022/09/20 00:43:35;;;;;;;;;;;;;;;;;;6252977;23;19922;-82
2022/09/20 00:46:00;;;;;;;;;;;;;;;;;;6252574;23;19915;-82
2022/09/20 00:48:26;;;;;;;;;;;;;;;;;;6252766;23;19923;-82
2022/09/20 00:50:51;;;;;;;;;;;;;;;;;;6253204;23;19912;-82
2022/09/20 00:53:17;;;;;;;;;;;;;;;;;;6255068;23;19911;-82
2022/09/20 00:55:44;;;;;;;;;;;;;;;;;;6255536;23;19912;-82
2022/09/20 00:58:09;;;;;;;;;;;;;;;;;;6252597;23;20087;-81
2022/09/20 01:00:35;;;;;;;;;;;;;;;;;;6251169;23;20283;-82
2022/09/20 01:03:01;;;;;;;;;;;;;;;;;;6252173;23;19934;-83
2022/09/20 01:05:26;;;;;;;;;;;;;;;;;;6251251;23;19945;-82
2022/09/20 01:07:52;;;;;;;;;;;;;;;;;;6254014;23;20148;-83
2022/09/20 01:10:17;;;;;;;;;;;;;;;;;;6252309;23;19942;-81
2022/09/20 01:12:44;;;;;;;;;;;;;;;;;;6246363;23;19915;-82
2022/09/20 01:15:10;;;;;;;;;;;;;;;;;;6251613;23;19911;-83
2022/09/20 01:17:36;;;;;;;;;;;;;;;;;;6232952;23;19959;-81
2022/09/20 01:20:01;;;;;;;;;;;;;;;;;;6260044;22;19912;-82
2022/09/20 01:22:28;;;;;;;;;;;;;;;;;;6246056;23;20307;-80
2022/09/20 01:24:54;;;;;;;;;;;;;;;;;;6246761;23;19962;-81
2022/09/20 01:27:19;;;;;;;;;;;;;;;;;;6252443;23;19911;-82
2022/09/20 01:29:45;;;;;;;;;;;;;;;;;;6248290;23;19933;-80
2022/09/20 01:32:10;;;;;;;;;;;;;;;;;;6246545;23;19912;-80
2022/09/20 01:34:36;;;;;;;;;;;;;;;;;;6246463;23;19915;-82
2022/09/20 01:37:01;;;;;;;;;;;;;;;;;;6242295;23;19986;-80
2022/09/20 01:39:27;;;;;;;;;;;;;;;;;;6249047;23;19911;-80
2022/09/20 01:41:53;;;;;;;;;;;;;;;;;;6245525;23;19912;-81
2022/09/20 01:44:18;;;;;;;;;;;;;;;;;;6244966;23;19916;-79
2022/09/20 01:46:44;;;;;;;;;;;;;;;;;;6245574;23;19919;-80
2022/09/20 01:49:10;;;;;;;;;;;;;;;;;;6225746;23;20356;-83
2022/09/20 01:51:35;;;;;;;;;;;;;;;;;;6252333;23;19931;-81
2022/09/20 01:54:01;;;;;;;;;;;;;;;;;;6244104;23;19938;-81
2022/09/20 01:56:26;;;;;;;;;;;;;;;;;;6218359;23;19986;-82
2022/09/20 01:58:52;;;;;;;;;;;;;;;;;;6248145;23;19918;-81
2022/09/20 02:01:17;;;;;;;;;;;;;;;;;;6263498;23;19918;-83
2022/09/20 02:03:43;;;;;;;;;;;;;;;;;;6258921;23;20217;-81
2022/09/20 02:06:09;;;;;;;;;;;;;;;;;;6249970;23;19923;-81
2022/09/20 02:08:35;;;;;;;;;;;;;;;;;;6245019;23;19920;-81
2022/09/20 02:11:00;;;;;;;;;;;;;;;;;;6246496;23;19912;-81
2022/09/20 02:13:26;;;;;;;;;;;;;;;;;;6244318;23;19990;-81
2022/09/20 02:15:51;;;;;;;;;;;;;;;;;;6244265;23;19945;-81
2022/09/20 02:18:17;;;;;;;;;;;;;;;;;;6244021;23;19922;-79
2022/09/20 02:20:43;;;;;;;;;;;;;;;;;;6253008;22;19918;-82
2022/09/20 02:23:08;;;;;;;;;;;;;;;;;;6255023;23;19919;-82
2022/09/20 02:25:34;;;;;;;;;;;;;;;;;;6259696;23;19950;-83
2022/09/20 02:27:59;;;;;;;;;;;;;;;;;;6261773;23;19955;-83
2022/09/20 02:30:25;;;;;;;;;;;;;;;;;;6260483;23;19911;-83
2022/09/20 02:32:50;;;;;;;;;;;;;;;;;;6257727;23;19935;-83
2022/09/20 02:35:16;;;;;;;;;;;;;;;;;;6254949;23;19916;-82
2022/09/20 02:37:41;;;;;;;;;;;;;;;;;;6253287;23;19938;-82
2022/09/20 02:40:07;;;;;;;;;;;;;;;;;;6245862;23;20251;-80
2022/09/20 02:42:32;;;;;;;;;;;;;;;;;;6243483;23;19919;-81
2022/09/20 02:44:58;;;;;;;;;;;;;;;;;;6244962;23;19926;-81
2022/09/20 02:47:23;;;;;;;;;;;;;;;;;;6246844;23;19908;-83
2022/09/20 02:49:49;;;;;;;;;;;;;;;;;;6248210;23;20488;-81
2022/09/20 02:52:15;;;;;;;;;;;;;;;;;;6248767;23;19911;-82
2022/09/20 02:54:40;;;;;;;;;;;;;;;;;;6247580;23;19919;-81
2022/09/20 02:57:06;;;;;;;;;;;;;;;;;;6248304;23;19916;-82
2022/09/20 02:59:31;;;;;;;;;;;;;;;;;;6219658;23;19997;-82
2022/09/20 03:01:57;;;;;;;;;;;;;;;;;;6245546;23;19978;-81
2022/09/20 03:04:23;;;;;;;;;;;;;;;;;;6248728;23;19911;-82
2022/09/20 03:06:48;;;;;;;;;;;;;;;;;;6251038;23;19920;-82
2022/09/20 03:09:16;;;;;;;;;;;;;;;;;;6243939;23;19919;-81
2022/09/20 03:11:43;;;;;;;;;;;;;;;;;;6244012;23;19912;-82
2022/09/20 03:14:08;;;;;;;;;;;;;;;;;;6243750;23;19912;-79
2022/09/20 03:16:34;;;;;;;;;;;;;;;;;;6243347;23;19918;-81
2022/09/20 03:18:59;;;;;;;;;;;;;;;;;;6245921;23;19912;-81
2022/09/20 03:21:25;;;;;;;;;;;;;;;;;;6248092;22;19934;-82
2022/09/20 03:23:51;;;;;;;;;;;;;;;;;;6249782;23;19911;-82
2022/09/20 03:26:16;;;;;;;;;;;;;;;;;;6247848;23;19923;-83
2022/09/20 03:28:42;;;;;;;;;;;;;;;;;;6217809;23;19962;-80
2022/09/20 03:31:08;;;;;;;;;;;;;;;;;;6244404;23;19919;-80
2022/09/20 03:33:33;;;;;;;;;;;;;;;;;;6242589;23;20352;-82
2022/09/20 03:35:59;;;;;;;;;;;;;;;;;;6246938;23;20343;-83
2022/09/20 03:38:24;;;;;;;;;;;;;;;;;;6245016;23;19912;-81
2022/09/20 03:40:50;;;;;;;;;;;;;;;;;;6245513;23;20398;-82
2022/09/20 03:43:15;;;;;;;;;;;;;;;;;;6242140;23;19947;-82
2022/09/20 03:45:41;;;;;;;;;;;;;;;;;;6242884;23;19923;-81
2022/09/20 03:48:06;;;;;;;;;;;;;;;;;;6243790;23;19912;-82
2022/09/20 03:50:32;;;;;;;;;;;;;;;;;;6217662;23;19919;-81
2022/09/20 03:52:58;;;;;;;;;;;;;;;;;;6244433;23;19916;-81
2022/09/20 03:55:23;;;;;;;;;;;;;;;;;;6254422;23;19912;-82
2022/09/20 03:57:49;;;;;;;;;;;;;;;;;;6269238;22;19935;-81
2022/09/20 04:00:14;;;;;;;;;;;;;;;;;;6266363;23;19934;-81
2022/09/20 04:02:40;;;;;;;;;;;;;;;;;;6256586;23;19952;-81
2022/09/20 04:05:06;;;;;;;;;;;;;;;;;;6251339;23;19951;-82
2022/09/20 04:07:31;;;;;;;;;;;;;;;;;;6250492;23;20403;-83
2022/09/20 04:09:57;;;;;;;;;;;;;;;;;;6247069;23;19978;-81
2022/09/20 04:12:23;;;;;;;;;;;;;;;;;;6253689;23;19915;-81
2022/09/20 04:14:48;;;;;;;;;;;;;;;;;;6256991;23;19918;-81
2022/09/20 04:17:14;;;;;;;;;;;;;;;;;;6254570;23;19993;-80
2022/09/20 04:19:40;;;;;;;;;;;;;;;;;;6242093;23;19958;-80
2022/09/20 04:22:07;;;;;;;;;;;;;;;;;;6243172;22;19911;-82
2022/09/20 04:24:32;;;;;;;;;;;;;;;;;;6243661;23;19912;-82
2022/09/20 04:26:58;;;;;;;;;;;;;;;;;;6245462;23;19962;-81
2022/09/20 04:29:25;;;;;;;;;;;;;;;;;;6243270;23;19965;-82
2022/09/20 04:31:51;;;;;;;;;;;;;;;;;;6244619;23;19989;-81
2022/09/20 04:34:17;;;;;;;;;;;;;;;;;;6243634;23;19918;-81
2022/09/20 04:36:42;;;;;;;;;;;;;;;;;;6215749;23;19927;-81
2022/09/20 04:39:08;;;;;;;;;;;;;;;;;;6240757;23;19912;-80
2022/09/20 04:41:33;;;;;;;;;;;;;;;;;;6242069;23;20132;-80
2022/09/20 04:43:59;;;;;;;;;;;;;;;;;;6241076;23;20387;-79
2022/09/20 04:46:25;;;;;;;;;;;;;;;;;;6241690;23;19966;-78
2022/09/20 04:48:51;;;;;;;;;;;;;;;;;;6243588;23;19964;-77
2022/09/20 04:51:16;;;;;;;;;;;;;;;;;;6242042;23;19973;-78
2022/09/20 04:53:42;;;;;;;;;;;;;;;;;;6240840;23;19939;-80
2022/09/20 04:56:09;;;;;;;;;;;;;;;;;;6245350;23;20236;-82
2022/09/20 04:58:35;;;;;;;;;;;;;;;;;;6247569;23;19946;-83
2022/09/20 05:01:01;;;;;;;;;;;;;;;;;;6247193;23;19909;-79
2022/09/20 05:03:28;;;;;;;;;;;;;;;;;;6245690;23;20355;-79
2022/09/20 05:05:55;;;;;;;;;;;;;;;;;;6239296;23;19958;-76
2022/09/20 05:08:21;;;;;;;;;;;;;;;;;;6239655;23;20374;-80
2022/09/20 05:10:46;;;;;;;;;;;;;;;;;;6241376;23;19915;-80
2022/09/20 05:13:12;;;;;;;;;;;;;;;;;;6240217;23;19912;-79
2022/09/20 05:15:37;;;;;;;;;;;;;;;;;;6241312;23;19911;-79
2022/09/20 05:18:03;;;;;;;;;;;;;;;;;;6239620;23;20194;-81
2022/09/20 05:20:29;;;;;;;;;;;;;;;;;;6239121;22;19942;-77
2022/09/20 05:22:54;;;;;;;;;;;;;;;;;;6241314;23;19981;-77
2022/09/20 05:25:20;;;;;;;;;;;;;;;;;;6238290;23;19920;-77
2022/09/20 05:27:45;;;;;;;;;;;;;;;;;;6244599;23;19991;-86
2022/09/20 05:30:11;;;;;;;;;;;;;;;;;;6244043;23;20003;-75
2022/09/20 05:32:36;;;;;;;;;;;;;;;;;;6239849;23;19922;-74
2022/09/20 05:35:02;;;;;;;;;;;;;;;;;;6239674;23;19942;-75
2022/09/20 05:37:28;;;;;;;;;;;;;;;;;;6239804;23;19911;-75
2022/09/20 05:39:54;;;;;;;;;;;;;;;;;;6240047;23;19911;-76
2022/09/20 05:42:19;;;;;;;;;;;;;;;;;;6239819;23;19912;-75
2022/09/20 05:44:45;;;;;;;;;;;;;;;;;;6239326;23;19919;-74
2022/09/20 05:47:11;;;;;;;;;;;;;;;;;;6239859;23;19997;-74
2022/09/20 05:49:37;;;;;;;;;;;;;;;;;;6239422;23;19939;-75
2022/09/20 05:52:02;;;;;;;;;;;;;;;;;;6239640;23;20289;-77
2022/09/20 05:54:28;;;;;;;;;;;;;;;;;;6239654;23;19982;-76
2022/09/20 05:56:53;;;;;;;;;;;;;;;;;;6256878;23;19967;-79
2022/09/20 05:59:19;;;;;;;;;;;;;;;;;;6221180;23;19912;-79
2022/09/20 06:01:45;;;;;;;;;;;;;;;;;;6244122;23;19912;-76
2022/09/20 06:04:10;;;;;;;;;;;;;;;;;;6241695;23;19938;-78
2022/09/20 06:06:36;;;;;;;;;;;;;;;;;;6240436;23;20622;-78
2022/09/20 06:09:02;;;;;;;;;;;;;;;;;;6240117;23;19920;-78
2022/09/20 06:11:28;;;;;;;;;;;;;;;;;;6239558;23;20399;-77
2022/09/20 06:14:02;;;;;;;;;;;;;;;;;;6239565;23;19912;-77
2022/09/20 06:16:27;;;;;;;;;;;;;;;;;;6239671;23;19965;-78
2022/09/20 06:18:53;;;;;;;;;;;;;;;;;;6239799;23;20342;-78
2022/09/20 06:21:18;;;;;;;;;;;;;;;;;;6239665;22;19962;-77
2022/09/20 06:23:44;;;;;;;;;;;;;;;;;;6238968;23;20306;-77
2022/09/20 06:26:10;;;;;;;;;;;;;;;;;;6240193;23;19974;-80
2022/09/20 06:28:35;;;;;;;;;;;;;;;;;;6240220;23;19912;-78
2022/09/20 06:31:06;;;;;;;;;;;;;;;;;;6240973;23;19911;-80
2022/09/20 06:33:31;;;;;;;;;;;;;;;;;;6240485;23;19986;-81
2022/09/20 06:35:57;;;;;;;;;;;;;;;;;;6241400;23;20439;-82
2022/09/20 06:41:27;;;;;;;;;;;;;;;;;;6213017;23;19912;-80
2022/09/20 06:43:52;;;;;;;;;;;;;;;;;;6238793;23;19998;-79
2022/09/20 06:46:18;;;;;;;;;;;;;;;;;;6238130;23;20048;-79
2022/09/20 06:48:43;;;;;;;;;;;;;;;;;;6237398;23;19908;-79
2022/09/20 06:51:09;;;;;;;;;;;;;;;;;;6239660;23;19923;-77
2022/09/20 06:53:35;;;;;;;;;;;;;;;;;;6241717;23;19938;-82
2022/09/20 06:56:01;;;;;;;;;;;;;;;;;;6242260;23;19919;-81
2022/09/20 06:58:27;;;;;;;;;;;;;;;;;;6240765;23;19938;-81
2022/09/20 07:00:52;;;;;;;;;;;;;;;;;;6240907;23;20002;-81
2022/09/20 07:03:18;;;;;;;;;;;;;;;;;;6241647;23;19916;-83
2022/09/20 07:05:44;;;;;;;;;;;;;;;;;;6215173;23;20470;-82
2022/09/20 07:08:10;;;;;;;;;;;;;;;;;;6214596;23;20348;-80
2022/09/20 07:10:35;;;;;;;;;;;;;;;;;;6238340;23;19947;-82
2022/09/20 07:13:01;;;;;;;;;;;;;;;;;;6241750;23;19912;-79
2022/09/20 07:15:27;;;;;;;;;;;;;;;;;;6241022;23;19912;-81
2022/09/20 07:17:53;;;;;;;;;;;;;;;;;;6214030;23;19950;-81
2022/09/20 07:20:19;;;;;;;;;;;;;;;;;;6240655;22;19946;-81
2022/09/20 07:22:45;;;;;;;;;;;;;;;;;;6241642;23;19994;-80
2022/09/20 07:25:10;;;;;;;;;;;;;;;;;;6243750;23;20009;-82
2022/09/20 07:27:36;;;;;;;;;;;;;;;;;;6245258;23;19943;-82
2022/09/20 07:30:01;;;;;;;;;;;;;;;;;;6249219;23;19938;-82
2022/09/20 07:32:29;;;;;;;;;;;;;;;;;;6244265;23;19998;-80
2022/09/20 07:34:54;;;;;;;;;;;;;;;;;;6214896;23;20352;-79
2022/09/20 07:37:20;;;;;;;;;;;;;;;;;;6213132;23;19998;-82
2022/09/20 07:39:46;;;;;;;;;;;;;;;;;;6215023;23;20461;-79
2022/09/20 07:42:11;;;;;;;;;;;;;;;;;;6243348;23;20344;-79
2022/09/20 07:44:41;;;;;;;;;;;;;;;;;;6240684;23;19912;-83
2022/09/20 07:47:07;;;;;;;;;;;;;;;;;;6241754;23;19924;-82
2022/09/20 07:49:32;;;;;;;;;;;;;;;;;;6240786;23;19912;-79
2022/09/20 07:51:58;;;;;;;;;;;;;;;;;;6242704;23;20312;-79
2022/09/20 07:54:25;;;;;;;;;;;;;;;;;;6227875;23;20291;-80
2022/09/20 07:56:51;;;;;;;;;;;;;;;;;;6253494;23;19912;-80
2022/09/20 07:59:17;;;;;;;;;;;;;;;;;;6250953;23;20351;-79
2022/09/20 08:01:42;;;;;;;;;;;;;;;;;;6257208;23;19911;-79
2022/09/20 08:04:08;;;;;;;;;;;;;;;;;;6256238;23;19976;-79
2022/09/20 08:06:33;;;;;;;;;;;;;;;;;;6245292;23;19923;-80
2022/09/20 08:08:59;;;;;;;;;;;;;;;;;;6241339;23;19920;-79
2022/09/20 08:11:27;;;;;;;;;;;;;;;;;;6241069;23;20353;-75
2022/09/20 08:13:52;;;;;;;;;;;;;;;;;;6240863;23;19911;-77
2022/09/20 08:16:18;;;;;;;;;;;;;;;;;;6241006;23;19915;-76
2022/09/20 08:18:45;;;;;;;;;;;;;;;;;;6240944;23;20379;-77
2022/09/20 08:21:10;;;;;;;;;;;;;;;;;;6240822;22;19918;-76
2022/09/20 08:23:36;;;;;;;;;;;;;;;;;;6240934;23;19943;-75
2022/09/20 08:26:02;;;;;;;;;;;;;;;;;;6240525;23;19919;-76
2022/09/20 08:28:27;;;;;;;;;;;;;;;;;;6237855;23;19911;-75
2022/09/20 08:30:53;;;;;;;;;;;;;;;;;;6238664;23;19911;-76
2022/09/20 08:33:18;;;;;;;;;;;;;;;;;;6239638;23;20344;-77
2022/09/20 08:35:44;;;;;;;;;;;;;;;;;;6240308;23;19993;-76
2022/09/20 08:38:10;;;;;;;;;;;;;;;;;;6241160;23;19911;-76
2022/09/20 08:40:36;;;;;;;;;;;;;;;;;;6213470;23;19915;-76
2022/09/20 08:43:02;;;;;;;;;;;;;;;;;;6240773;23;20374;-77
2022/09/20 08:45:27;;;;;;;;;;;;;;;;;;6240111;23;19923;-76
2022/09/20 08:47:53;;;;;;;;;;;;;;;;;;6240805;23;19950;-76
2022/09/20 08:50:19;;;;;;;;;;;;;;;;;;6240641;23;20383;-77
2022/09/20 08:52:45;;;;;;;;;;;;;;;;;;6240423;23;19931;-77
2022/09/20 08:55:12;;;;;;;;;;;;;;;;;;6240089;23;19946;-76
2022/09/20 08:57:37;;;;;;;;;;;;;;;;;;6240617;23;20360;-80
2022/09/20 09:00:06;;;;;;;;;;;;;;;;;;6240896;23;19918;-81
2022/09/20 09:02:33;;;;;;;;;;;;;;;;;;6240437;23;19922;-78
2022/09/20 09:04:58;;;;;;;;;;;;;;;;;;6240408;23;19994;-78
2022/09/20 09:07:24;;;;;;;;;;;;;;;;;;6240325;23;19958;-79
2022/09/20 09:09:50;;;;;;;;;;;;;;;;;;6241317;23;20010;-82
2022/09/20 09:12:16;;;;;;;;;;;;;;;;;;6244618;23;19918;-84
2022/09/20 09:14:48;;;;;;;;;;;;;;;;;;6248558;23;19912;-82
2022/09/20 09:17:13;;;;;;;;;;;;;;;;;;6242945;23;19911;-82
2022/09/20 09:19:39;;;;;;;;;;;;;;;;;;6243466;23;19936;-85
2022/09/20 09:22:04;;;;;;;;;;;;;;;;;;6245808;22;19912;-82
2022/09/20 09:24:30;;;;;;;;;;;;;;;;;;6248445;23;20249;-82
2022/09/20 09:26:56;;;;;;;;;;;;;;;;;;6224082;23;20007;-83
2022/09/20 09:29:22;;;;;;;;;;;;;;;;;;6244562;23;19999;-82
2022/09/20 09:31:47;;;;;;;;;;;;;;;;;;6244987;23;20344;-83
2022/09/20 09:34:13;;;;;;;;;;;;;;;;;;6243519;23;19998;-83
2022/09/20 09:36:38;;;;;;;;;;;;;;;;;;6247171;23;19939;-84
2022/09/20 09:39:04;;;;;;;;;;;;;;;;;;6222679;23;19911;-86
2022/09/20 09:41:32;;;;;;;;;;;;;;;;;;6264853;23;19927;-82
2022/09/20 09:43:58;;;;;;;;;;;;;;;;;;6272154;22;19915;-89
2022/09/20 09:46:25;;;;;;;;;;;;;;;;;;6269669;22;19976;-83
2022/09/20 09:48:51;;;;;;;;;;;;;;;;;;6258476;23;19911;-85
2022/09/20 09:51:16;;;;;;;;;;;;;;;;;;6249130;23;20034;-80
2022/09/20 09:53:42;;;;;;;;;;;;;;;;;;6227764;23;19911;-80
2022/09/20 09:56:07;;;;;;;;;;;;;;;;;;6241692;23;20280;-79
2022/09/20 09:58:33;;;;;;;;;;;;;;;;;;6239624;23;19912;-80
2022/09/20 10:00:59;;;;;;;;;;;;;;;;;;6240582;23;20340;-79
2022/09/20 10:03:24;;;;;;;;;;;;;;;;;;6240087;23;20354;-79
2022/09/20 10:05:50;;;;;;;;;;;;;;;;;;6212518;23;19979;-78
2022/09/20 10:08:15;;;;;;;;;;;;;;;;;;6212734;23;20003;-79
2022/09/20 10:10:42;;;;;;;;;;;;;;;;;;6239610;23;19911;-79
2022/09/20 10:13:07;;;;;;;;;;;;;;;;;;6254880;23;19912;-81
2022/09/20 10:15:33;;;;;;;;;;;;;;;;;;6248036;23;19934;-82
2022/09/20 10:17:59;;;;;;;;;;;;;;;;;;6244177;23;19911;-83
2022/09/20 10:20:27;;;;;;;;;;;;;;;;;;6244710;22;19998;-82
2022/09/20 10:22:52;;;;;;;;;;;;;;;;;;6240714;23;20396;-83
2022/09/20 10:25:18;;;;;;;;;;;;;;;;;;6243148;23;19924;-83
2022/09/20 10:27:43;;;;;;;;;;;;;;;;;;6244190;23;20253;-82
2022/09/20 10:30:09;;;;;;;;;;;;;;;;;;6247937;23;20175;-80
2022/09/20 10:32:35;;;;;;;;;;;;;;;;;;6245688;23;19908;-82
2022/09/20 10:35:00;;;;;;;;;;;;;;;;;;6243923;23;19965;-82
2022/09/20 10:37:26;;;;;;;;;;;;;;;;;;6243243;23;19916;-82
2022/09/20 10:39:52;;;;;;;;;;;;;;;;;;6242915;23;19926;-79
2022/09/20 10:45:02;;;;;;;;;;;;;;;;;;6240667;23;19911;-81
2022/09/20 10:47:30;;;;;;;;;;;;;;;;;;6241310;23;19912;-79
2022/09/20 10:49:56;;;;;;;;;;;;;;;;;;6242252;23;20002;-82
2022/09/20 10:52:22;;;;;;;;;;;;;;;;;;6242331;23;19912;-82
2022/09/20 10:54:47;;;;;;;;;;;;;;;;;;6217194;23;19966;-80
2022/09/20 10:57:14;;;;;;;;;;;;;;;;;;6244815;23;19912;-82
2022/09/20 10:59:41;;;;;;;;;;;;;;;;;;6245694;23;20348;-80
2022/09/20 11:02:07;;;;;;;;;;;;;;;;;;6243528;23;20354;-82
2022/09/20 11:04:32;;;;;;;;;;;;;;;;;;6241441;23;19911;-81
2022/09/20 11:06:58;;;;;;;;;;;;;;;;;;6214285;23;20244;-81
2022/09/20 11:09:24;;;;;;;;;;;;;;;;;;6239983;23;20034;-80
2022/09/20 11:11:49;;;;;;;;;;;;;;;;;;6239863;23;19912;-79
2022/09/20 11:14:15;;;;;;;;;;;;;;;;;;6213821;23;19965;-80
2022/09/20 11:16:41;;;;;;;;;;;;;;;;;;6239633;23;19982;-78
2022/09/20 11:19:07;;;;;;;;;;;;;;;;;;6239463;23;19916;-78
2022/09/20 11:21:33;;;;;;;;;;;;;;;;;;6240419;22;19911;-78
2022/09/20 11:23:58;;;;;;;;;;;;;;;;;;6241770;23;20402;-80
2022/09/20 11:26:24;;;;;;;;;;;;;;;;;;6241014;23;19958;-82
2022/09/20 11:28:50;;;;;;;;;;;;;;;;;;6243278;23;19918;-78
2022/09/20 11:31:16;;;;;;;;;;;;;;;;;;6251145;23;19931;-81
2022/09/20 11:33:42;;;;;;;;;;;;;;;;;;6254782;23;19912;-80
2022/09/20 11:36:07;;;;;;;;;;;;;;;;;;6253263;23;19911;-83
2022/09/20 11:38:33;;;;;;;;;;;;;;;;;;6218758;23;19938;-79
2022/09/20 11:40:59;;;;;;;;;;;;;;;;;;6240638;23;19919;-76
2022/09/20 11:43:29;;;;;;;;;;;;;;;;;;6241396;23;19911;-80
2022/09/20 11:45:55;;;;;;;;;;;;;;;;;;6242043;23;19919;-78
2022/09/20 11:48:20;;;;;;;;;;;;;;;;;;6249177;23;19911;-78
2022/09/20 11:50:46;;;;;;;;;;;;;;;;;;6251109;23;19999;-81
2022/09/20 11:53:12;;;;;;;;;;;;;;;;;;6240547;23;19919;-79
2022/09/20 11:55:37;;;;;;;;;;;;;;;;;;6214384;23;19912;-79
2022/09/20 11:58:03;;;;;;;;;;;;;;;;;;6241495;23;19934;-79
2022/09/20 12:00:29;;;;;;;;;;;;;;;;;;6239567;23;20041;-80
2022/09/20 12:02:55;;;;;;;;;;;;;;;;;;6243861;23;19911;-80
2022/09/20 12:05:20;;;;;;;;;;;;;;;;;;6240572;23;19916;-82
2022/09/20 12:07:46;;;;;;;;;;;;;;;;;;6243259;23;20290;-81
2022/09/20 12:10:13;;;;;;;;;;;;;;;;;;6242485;23;20303;-81
2022/09/20 12:12:40;;;;;;;;;;;;;;;;;;6242633;23;19918;-82
2022/09/20 12:15:06;;;;;;;;;;;;;;;;;;6246860;23;20479;-83
2022/09/20 12:17:32;;;;;;;;;;;;;;;;;;6217949;23;20252;-81
2022/09/20 12:19:57;;;;;;;;;;;;;;;;;;6242759;22;20113;-81
2022/09/20 12:22:23;;;;;;;;;;;;;;;;;;6244217;23;20173;-81
2022/09/20 12:24:48;;;;;;;;;;;;;;;;;;6213812;23;20099;-77
2022/09/20 12:27:14;;;;;;;;;;;;;;;;;;6235713;23;19919;-77
2022/09/20 12:29:40;;;;;;;;;;;;;;;;;;6242045;23;19911;-78
2022/09/20 12:32:06;;;;;;;;;;;;;;;;;;6255442;23;19911;-88
2022/09/20 12:34:32;;;;;;;;;;;;;;;;;;6270947;22;19922;-85
2022/09/20 12:36:58;;;;;;;;;;;;;;;;;;6243087;22;19923;-86
2022/09/20 12:39:37;;;;;;;;;;;;;;;;;;6291780;22;19927;-82
2022/09/20 12:42:02;;;;;;;;;;;;;;;;;;6253613;22;19911;-81
2022/09/20 12:44:28;;;;;;;;;;;;;;;;;;6275150;22;20245;-82
2022/09/20 12:46:54;;;;;;;;;;;;;;;;;;6221505;22;19919;-81
2022/09/20 12:52:49;;;;;;;;;;;;;;;;;;6273705;22;19938;-81
2022/09/20 12:54:50;;;;;;;;;;;;;;;;;;6252870;22;20410;-80
2022/09/20 12:57:15;;;;;;;;;;;;;;;;;;6273782;22;19911;-82
2022/09/20 12:59:41;;;;;;;;;;;;;;;;;;6276562;22;20055;-83
2022/09/20 13:02:07;;;;;;;;;;;;;;;;;;6261335;22;19939;-79
2022/09/20 13:04:32;;;;;;;;;;;;;;;;;;6273415;22;20218;-79
2022/09/20 13:06:58;;;;;;;;;;;;;;;;;;6275861;22;20009;-81
2022/09/20 13:09:24;;;;;;;;;;;;;;;;;;6246416;22;19915;-81
2022/09/20 13:11:50;;;;;;;;;;;;;;;;;;6274100;22;19915;-81
2022/09/20 13:14:16;;;;;;;;;;;;;;;;;;6263385;22;20131;-82
2022/09/20 13:16:42;;;;;;;;;;;;;;;;;;6265901;22;20339;-83
2022/09/20 13:19:07;;;;;;;;;;;;;;;;;;6273291;22;19911;-81
2022/09/20 13:21:33;;;;;;;;;;;;;;;;;;6275872;22;19942;-85
2022/09/20 13:23:59;;;;;;;;;;;;;;;;;;6298946;22;19915;-86
2022/09/20 13:26:26;;;;;;;;;;;;;;;;;;6301038;22;19931;-87
2022/09/20 13:28:53;;;;;;;;;;;;;;;;;;6225866;22;20046;-89
2022/09/20 13:31:18;;;;;;;;;;;;;;;;;;6238842;22;19914;-84
2022/09/20 13:33:44;;;;;;;;;;;;;;;;;;6232991;22;19916;-81
2022/09/20 13:36:10;;;;;;;;;;;;;;;;;;6192729;23;19919;-79
2022/09/20 13:38:35;;;;;;;;;;;;;;;;;;6208258;23;20387;-77
2022/09/20 13:41:01;;;;;;;;;;;;;;;;;;6207891;23;20340;-76
2022/09/20 13:43:30;;;;;;;;;;;;;;;;;;6212195;23;20229;-78
2022/09/20 13:45:56;;;;;;;;;;;;;;;;;;6222861;23;19946;-77
2022/09/20 13:48:21;;;;;;;;;;;;;;;;;;6194217;23;20558;-77
2022/09/20 13:50:47;;;;;;;;;;;;;;;;;;6201797;23;19919;-77
2022/09/20 13:53:14;;;;;;;;;;;;;;;;;;6180472;23;19919;-75
2022/09/20 13:55:39;;;;;;;;;;;;;;;;;;6183672;23;19912;-75
2022/09/20 13:58:06;;;;;;;;;;;;;;;;;;6206937;23;20372;-77
2022/09/20 14:00:33;;;;;;;;;;;;;;;;;;6188136;23;19920;-76
2022/09/20 14:02:59;;;;;;;;;;;;;;;;;;6204100;23;19912;-75
2022/09/20 14:05:24;;;;;;;;;;;;;;;;;;6207513;23;19962;-77
2022/09/20 14:07:50;;;;;;;;;;;;;;;;;;6158591;23;19991;-76
2022/09/20 14:10:15;;;;;;;;;;;;;;;;;;6209734;23;19981;-76
2022/09/20 14:12:41;;;;;;;;;;;;;;;;;;6187328;23;20258;-76
2022/09/20 14:15:07;;;;;;;;;;;;;;;;;;6209064;23;19908;-76
2022/09/20 14:17:33;;;;;;;;;;;;;;;;;;6209503;23;19927;-77
2022/09/20 14:19:58;;;;;;;;;;;;;;;;;;6158718;23;20370;-76
2022/09/20 14:22:24;;;;;;;;;;;;;;;;;;6209669;23;20375;-77
2022/09/20 14:24:49;;;;;;;;;;;;;;;;;;6179399;23;19912;-75
2022/09/20 14:27:15;;;;;;;;;;;;;;;;;;6209180;23;19920;-76
2022/09/20 14:29:41;;;;;;;;;;;;;;;;;;6209371;23;20022;-75
2022/09/20 14:32:06;;;;;;;;;;;;;;;;;;6185272;23;19912;-76
2022/09/20 14:34:32;;;;;;;;;;;;;;;;;;6209310;23;20353;-76
2022/09/20 14:36:57;;;;;;;;;;;;;;;;;;6186244;23;20124;-76
2022/09/20 14:39:23;;;;;;;;;;;;;;;;;;6209459;23;19955;-76
2022/09/20 14:41:49;;;;;;;;;;;;;;;;;;6202966;23;19951;-76
2022/09/20 14:44:15;;;;;;;;;;;;;;;;;;6192494;23;19987;-76
2022/09/20 14:46:40;;;;;;;;;;;;;;;;;;6209066;23;20056;-77
2022/09/20 14:49:06;;;;;;;;;;;;;;;;;;6186693;23;19912;-77
2022/09/20 14:51:31;;;;;;;;;;;;;;;;;;6210013;23;19916;-76
2022/09/20 14:53:57;;;;;;;;;;;;;;;;;;6200554;23;19912;-76
2022/09/20 14:56:23;;;;;;;;;;;;;;;;;;6198054;23;19919;-76
2022/09/20 14:58:48;;;;;;;;;;;;;;;;;;6223217;23;19935;-76
2022/09/20 15:01:14;;;;;;;;;;;;;;;;;;6199457;23;19921;-77
2022/09/20 15:03:40;;;;;;;;;;;;;;;;;;6212986;23;19911;-75
2022/09/20 15:06:05;;;;;;;;;;;;;;;;;;6198771;23;20308;-75
2022/09/20 15:08:31;;;;;;;;;;;;;;;;;;6200081;23;19911;-74
2022/09/20 15:10:56;;;;;;;;;;;;;;;;;;6211238;23;19988;-75
2022/09/20 15:13:22;;;;;;;;;;;;;;;;;;6187475;23;19927;-76
2022/09/20 15:15:48;;;;;;;;;;;;;;;;;;6210751;23;19950;-76
2022/09/20 15:18:13;;;;;;;;;;;;;;;;;;6210332;23;20300;-75
2022/09/20 15:20:39;;;;;;;;;;;;;;;;;;6210475;23;19908;-76
2022/09/20 15:23:04;;;;;;;;;;;;;;;;;;6209904;23;19916;-75
2022/09/20 15:25:30;;;;;;;;;;;;;;;;;;6209083;23;20380;-75
2022/09/20 15:27:56;;;;;;;;;;;;;;;;;;6187398;23;19927;-76
2022/09/20 15:30:22;;;;;;;;;;;;;;;;;;6184203;23;20359;-76
2022/09/20 15:32:48;;;;;;;;;;;;;;;;;;6187231;23;20477;-76
2022/09/20 15:35:14;;;;;;;;;;;;;;;;;;6207862;23;19912;-76
2022/09/20 15:37:39;;;;;;;;;;;;;;;;;;6209330;23;20304;-76
2022/09/20 15:40:06;;;;;;;;;;;;;;;;;;6187142;23;20344;-76
2022/09/20 15:42:33;;;;;;;;;;;;;;;;;;6191550;23;19939;-79
2022/09/20 15:44:59;;;;;;;;;;;;;;;;;;6205493;23;19911;-78
2022/09/20 15:47:27;;;;;;;;;;;;;;;;;;6168255;23;19922;-80
2022/09/20 15:49:52;;;;;;;;;;;;;;;;;;6210825;23;19916;-79
2022/09/20 15:52:23;;;;;;;;;;;;;;;;;;6195509;23;19923;-79
2022/09/20 15:54:50;;;;;;;;;;;;;;;;;;6202855;23;19978;-81
2022/09/20 15:57:15;;;;;;;;;;;;;;;;;;6209458;23;20171;-78
2022/09/20 15:59:41;;;;;;;;;;;;;;;;;;6209503;23;20079;-78
2022/09/20 16:02:07;;;;;;;;;;;;;;;;;;6207931;23;19912;-79
2022/09/20 16:04:33;;;;;;;;;;;;;;;;;;6207319;23;19920;-81
2022/09/20 16:06:59;;;;;;;;;;;;;;;;;;6186768;23;19920;-78
2022/09/20 16:09:25;;;;;;;;;;;;;;;;;;6209484;23;19994;-79
2022/09/20 16:11:57;;;;;;;;;;;;;;;;;;6204296;23;19912;-79
2022/09/20 16:14:22;;;;;;;;;;;;;;;;;;6194197;23;19919;-80
2022/09/20 16:16:48;;;;;;;;;;;;;;;;;;6209211;23;19912;-76
2022/09/20 16:19:19;;;;;;;;;;;;;;;;;;6212305;23;19966;-80
2022/09/20 16:21:48;;;;;;;;;;;;;;;;;;6210507;23;19973;-79
2022/09/20 16:24:14;;;;;;;;;;;;;;;;;;6209747;23;19911;-77
2022/09/20 16:26:39;;;;;;;;;;;;;;;;;;6185105;23;19920;-78
2022/09/20 16:29:08;;;;;;;;;;;;;;;;;;6210305;23;20318;-81
2022/09/20 16:31:34;;;;;;;;;;;;;;;;;;6210695;23;20468;-80
2022/09/20 16:33:59;;;;;;;;;;;;;;;;;;6189679;23;19932;-81
2022/09/20 16:36:25;;;;;;;;;;;;;;;;;;6226145;23;19967;-81
2022/09/20 16:38:50;;;;;;;;;;;;;;;;;;6198958;23;19938;-82
2022/09/20 16:41:16;;;;;;;;;;;;;;;;;;6213395;23;19950;-83
2022/09/20 16:43:41;;;;;;;;;;;;;;;;;;6183642;23;19912;-82
2022/09/20 16:46:08;;;;;;;;;;;;;;;;;;6199161;23;20342;-82
2022/09/20 16:48:34;;;;;;;;;;;;;;;;;;6201483;23;19958;-83